Time;durP1;ratioP1;P1;durP2;ratioP2;P2;SDS_P1;SDS_P2;PMS_P1;PMS_P2;Temp;Humidity;BMP_temperature;BMP_pressure;BME280_temperature;BME280_humidity;BME280_pressure;Samples;Min_cycle;Max_cycle;Signal;HPM_P1;HPM_P2
2022/11/16 00:01:19;;;;;;;;;;;;;;;-1.33;80.24;101358.81;1883868;76;20117;-59
2022/11/16 00:03:48;;;;;;;;;;;;;;;-1.34;80.29;101353.64;1882827;76;20113;-60
2022/11/16 00:06:15;;;;;;;;;;;;;;;-1.40;80.59;101344.92;1904115;75;20110;-59
2022/11/16 00:08:45;;;;;;;;;;;;;;;-1.42;80.53;101350.88;1884434;75;20161;-58
2022/11/16 00:11:14;;;;;;;;;;;;;;;-1.41;80.48;101344.89;1908040;75;20169;-55
2022/11/16 00:13:42;;;;;;;;;;;;;;;-1.41;80.57;101335.84;1916653;75;20231;-64
2022/11/16 00:16:15;;;;;;;;;;;;;;;-1.40;80.54;101331.14;1916682;75;20126;-61
2022/11/16 00:18:44;;;;;;;;;;;;;;;-1.37;80.41;101332.47;1915686;75;20173;-60
2022/11/16 00:21:11;;;;;;;;;;;;;;;-1.39;80.55;101332.44;1914588;75;20111;-58
2022/11/16 00:23:39;;;;;;;;;;;;;;;-1.36;80.63;101325.19;1915936;75;20119;-59
2022/11/16 00:26:08;;;;;;;;;;;;;;;-1.36;80.52;101316.14;1898051;75;20113;-58
2022/11/16 00:28:37;;;;;;;;;;;;;;;-1.38;80.53;101327.73;1907701;75;20115;-58
2022/11/16 00:31:06;;;;;;;;;;;;;;;-1.41;80.65;101321.64;1916616;75;20102;-57
2022/11/16 00:33:34;;;;;;;;;;;;;;;-1.44;80.89;101318.59;1891726;75;20199;-56
2022/11/16 00:36:04;;;;;;;;;;;;;;;-1.44;80.88;101315.11;1928177;73;20119;-56
2022/11/16 00:38:32;;;;;;;;;;;;;;;-1.42;81.05;101310.44;1931711;74;20116;-55
2022/11/16 00:41:00;;;;;;;;;;;;;;;-1.39;81.16;101299.28;1931694;74;20116;-60
2022/11/16 00:43:29;;;;;;;;;;;;;;;-1.35;80.98;101298.49;1931606;74;20155;-56
2022/11/16 00:45:57;;;;;;;;;;;;;;;-1.33;80.95;101301.97;1927682;74;20111;-63
2022/11/16 00:48:24;;;;;;;;;;;;;;;-1.32;80.94;101293.39;1911648;74;20161;-61
2022/11/16 00:50:53;;;;;;;;;;;;;;;-1.27;80.79;101286.60;1924915;74;20145;-61
2022/11/16 00:53:21;;;;;;;;;;;;;;;-1.25;80.64;101288.80;1909773;74;20111;-64
2022/11/16 00:55:49;;;;;;;;;;;;;;;-1.22;80.66;101284.98;1931904;74;20112;-63
2022/11/16 00:58:19;;;;;;;;;;;;;;;-1.18;80.71;101275.14;1931536;74;20196;-62
2022/11/16 01:00:48;;;;;;;;;;;;;;;-1.14;80.89;101279.05;1931409;74;20195;-61
2022/11/16 01:03:16;;;;;;;;;;;;;;;-1.14;80.92;101274.77;1920122;74;20143;-62
2022/11/16 01:05:46;;;;;;;;;;;;;;;-1.12;81.01;101273.08;1903447;74;20411;-63
2022/11/16 01:08:14;;;;;;;;;;;;;;;-1.10;80.81;101274.41;1898491;76;20149;-63
2022/11/16 01:10:42;;;;;;;;;;;;;;;-1.08;80.93;101268.84;1901404;74;20118;-64
2022/11/16 01:13:11;;;;;;;;;;;;;;;-1.06;81.18;101267.14;1896623;74;20252;-63
2022/11/16 01:15:39;;;;;;;;;;;;;;;-1.07;81.35;101267.98;1917079;74;20161;-65
2022/11/16 01:18:07;;;;;;;;;;;;;;;-1.05;81.31;101271.45;1899932;74;20098;-65
2022/11/16 01:20:34;;;;;;;;;;;;;;;-1.06;81.21;101261.98;1898508;76;20149;-64
2022/11/16 01:23:02;;;;;;;;;;;;;;;-1.05;81.19;101266.28;1929700;74;20100;-64
2022/11/16 01:25:30;;;;;;;;;;;;;;;-1.06;81.05;101272.31;1914244;73;20114;-66
2022/11/16 01:27:58;;;;;;;;;;;;;;;-1.11;81.06;101262.31;1905865;74;20261;-65
2022/11/16 01:30:28;;;;;;;;;;;;;;;-1.12;81.13;101258.01;1911923;74;20154;-66
2022/11/16 01:32:57;;;;;;;;;;;;;;;-1.11;81.01;101254.56;1897841;74;20158;-67
2022/11/16 01:35:25;;;;;;;;;;;;;;;-1.14;81.10;101260.95;1916672;74;20116;-67
2022/11/16 01:37:53;;;;;;;;;;;;;;;-1.12;81.15;101256.72;1902010;75;20114;-64
2022/11/16 01:40:21;;;;;;;;;;;;;;;-1.13;81.21;101256.25;1904289;75;20122;-61
2022/11/16 01:42:49;;;;;;;;;;;;;;;-1.12;81.08;101259.30;1899782;75;20163;-62
2022/11/16 01:45:18;;;;;;;;;;;;;;;-1.17;81.20;101252.31;1921819;75;20108;-62
2022/11/16 01:47:47;;;;;;;;;;;;;;;-1.12;80.94;101252.41;1899910;75;20096;-61
2022/11/16 01:50:17;;;;;;;;;;;;;;;-1.10;80.88;101253.73;1921721;75;20100;-62
2022/11/16 01:52:47;;;;;;;;;;;;;;;-1.07;80.66;101251.17;1904245;75;20377;-63
2022/11/16 01:55:15;;;;;;;;;;;;;;;-1.04;80.55;101244.34;1897286;75;20147;-63
2022/11/16 01:57:49;;;;;;;;;;;;;;;-1.01;80.36;101244.41;1906201;75;20102;-62
2022/11/16 02:00:17;;;;;;;;;;;;;;;-0.97;80.22;101247.91;1888822;76;20114;-65
2022/11/16 02:02:47;;;;;;;;;;;;;;;-0.95;80.15;101246.65;1887683;74;20145;-65
2022/11/16 02:05:17;;;;;;;;;;;;;;;-0.95;80.07;101250.09;1894418;75;20126;-61
2022/11/16 02:10:41;;;;;;;;;;;;;;;-0.95;79.88;101252.68;1901604;75;20108;-53
2022/11/16 02:13:30;;;;;;;;;;;;;;;-0.95;79.73;101252.68;1888879;76;20166;-60
2022/11/16 02:15:59;;;;;;;;;;;;;;;-0.94;79.67;101252.25;1903629;75;20120;-62
2022/11/16 02:18:47;;;;;;;;;;;;;;;-0.94;79.63;101249.66;1914310;75;20181;-62
2022/11/16 02:21:17;;;;;;;;;;;;;;;-0.93;79.48;101248.84;1915740;75;20214;-60
2022/11/16 02:23:59;;;;;;;;;;;;;;;-0.95;79.32;101251.39;1888932;75;20146;-61
2022/11/16 02:26:45;;;;;;;;;;;;;;;-0.96;79.22;101240.59;1893482;75;20113;-58
2022/11/16 02:29:23;;;;;;;;;;;;;;;-0.95;79.14;101241.48;1920791;75;20112;-59
2022/11/16 02:32:02;;;;;;;;;;;;;;;-0.96;79.13;101243.17;1921843;75;20139;-57
2022/11/16 02:34:31;;;;;;;;;;;;;;;-0.94;79.09;101240.22;1921734;74;20159;-56
2022/11/16 02:37:00;;;;;;;;;;;;;;;-0.93;79.00;101245.82;1930281;74;20116;-49
2022/11/16 02:39:29;;;;;;;;;;;;;;;-0.94;79.20;101245.79;1931872;73;20147;-57
2022/11/16 02:41:59;;;;;;;;;;;;;;;-0.96;79.25;101249.63;1931826;74;20142;-57
2022/11/16 02:44:32;;;;;;;;;;;;;;;-0.95;79.21;101241.05;1931900;74;20116;-58
2022/11/16 02:47:03;;;;;;;;;;;;;;;-0.94;79.16;101238.92;1931349;74;20217;-57
2022/11/16 02:49:33;;;;;;;;;;;;;;;-0.90;79.01;101244.59;1931476;73;20119;-59
2022/11/16 02:52:01;;;;;;;;;;;;;;;-0.89;78.92;101238.98;1931802;74;20144;-60
2022/11/16 02:54:29;;;;;;;;;;;;;;;-0.89;78.80;101241.14;1931682;74;20187;-61
2022/11/16 02:56:59;;;;;;;;;;;;;;;-0.90;78.73;101235.53;1931807;74;20112;-59
2022/11/16 02:59:28;;;;;;;;;;;;;;;-0.89;78.67;101233.37;1923160;73;20163;-56
2022/11/16 03:02:01;;;;;;;;;;;;;;;-0.89;78.63;101233.81;1905965;74;20142;-55
2022/11/16 03:04:33;;;;;;;;;;;;;;;-0.89;78.57;101238.55;1905625;74;20136;-56
2022/11/16 03:07:03;;;;;;;;;;;;;;;-0.90;78.67;101225.20;1922867;74;20166;-57
2022/11/16 03:09:33;;;;;;;;;;;;;;;-0.88;78.58;101228.67;1920399;74;20103;-57
2022/11/16 03:12:02;;;;;;;;;;;;;;;-0.89;78.58;101232.09;1898439;76;20177;-57
2022/11/16 03:14:42;;;;;;;;;;;;;;;-0.90;78.62;101230.37;1915389;74;20101;-57
2022/11/16 03:17:12;;;;;;;;;;;;;;;-0.88;78.62;101232.55;1924239;74;20094;-55
2022/11/16 03:20:00;;;;;;;;;;;;;;;-0.88;78.52;101224.80;1898343;76;20154;-55
2022/11/16 03:22:37;;;;;;;;;;;;;;;-0.86;78.48;101229.56;1898468;76;20154;-58
2022/11/16 03:25:05;;;;;;;;;;;;;;;-0.87;78.56;101225.66;1898427;73;20118;-57
2022/11/16 03:27:41;;;;;;;;;;;;;;;-0.89;78.84;101224.33;1913903;74;20126;-61
2022/11/16 03:30:16;;;;;;;;;;;;;;;-0.90;78.99;101223.91;1931423;73;20104;-58
2022/11/16 03:33:01;;;;;;;;;;;;;;;-0.89;79.19;101214.42;1897371;74;20098;-57
2022/11/16 03:35:30;;;;;;;;;;;;;;;-0.85;79.17;101213.62;1929682;74;20150;-57
2022/11/16 03:37:59;;;;;;;;;;;;;;;-0.85;79.30;101209.34;1909276;75;20112;-58
2022/11/16 03:40:28;;;;;;;;;;;;;;;-0.80;79.16;101204.22;1888778;76;20189;-58
2022/11/16 03:42:58;;;;;;;;;;;;;;;-0.79;79.25;101205.54;1906763;75;20104;-58
2022/11/16 03:45:26;;;;;;;;;;;;;;;-0.77;79.22;101213.33;1921859;75;20147;-58
2022/11/16 03:47:54;;;;;;;;;;;;;;;-0.79;79.43;101204.69;1912941;75;20114;-56
2022/11/16 03:50:22;;;;;;;;;;;;;;;-0.81;79.58;101207.23;1910356;75;20150;-50
2022/11/16 03:52:51;;;;;;;;;;;;;;;-0.82;79.48;101197.73;1921921;75;20139;-57
2022/11/16 03:55:19;;;;;;;;;;;;;;;-0.81;79.62;101209.83;1913574;75;20116;-59
2022/11/16 03:57:47;;;;;;;;;;;;;;;-0.82;79.67;101207.21;1919590;75;20219;-61
2022/11/16 04:00:15;;;;;;;;;;;;;;;-0.83;79.78;101206.35;1919676;73;20230;-59
2022/11/16 04:02:43;;;;;;;;;;;;;;;-0.82;80.20;101204.62;1920376;75;20159;-58
2022/11/16 04:24:43;;;;;;;;;;;;;;;-0.62;80.47;101198.45;1908845;75;20339;-49
2022/11/16 04:29:59;;;;;;;;;;;;;;;-0.57;80.64;101198.10;1876637;76;20423;-50
2022/11/16 04:38:01;;;;;;;;;;;;;;;-0.40;80.12;101194.02;1881488;75;20565;-49
2022/11/16 04:40:31;;;;;;;;;;;;;;;-0.37;80.30;101191.88;1908530;75;20143;-50
2022/11/16 04:43:02;;;;;;;;;;;;;;;-0.34;80.64;101192.36;1908849;75;20175;-56
2022/11/16 04:48:18;;;;;;;;;;;;;;;-0.22;80.54;101190.80;1879661;74;20130;-57
2022/11/16 04:50:47;;;;;;;;;;;;;;;-0.12;80.37;101186.59;1899936;75;20127;-56
2022/11/16 04:53:16;;;;;;;;;;;;;;;-0.04;80.22;101184.98;1908772;75;20169;-57
2022/11/16 04:55:46;;;;;;;;;;;;;;;0.07;80.14;101180.33;1908877;75;20138;-55
2022/11/16 04:58:14;;;;;;;;;;;;;;;0.15;80.11;101184.75;1885882;75;20145;-56
2022/11/16 05:00:42;;;;;;;;;;;;;;;0.25;80.07;101184.41;1876791;76;20180;-50
2022/11/16 05:03:10;;;;;;;;;;;;;;;0.35;79.97;101186.27;1876778;76;20137;-53
2022/11/16 05:05:39;;;;;;;;;;;;;;;0.44;80.00;101188.05;1876655;76;20137;-54
2022/11/16 05:08:07;;;;;;;;;;;;;;;0.52;80.20;101185.13;1876678;76;20172;-53
2022/11/16 05:10:35;;;;;;;;;;;;;;;0.61;80.16;101175.68;1887146;75;20375;-53
2022/11/16 05:13:03;;;;;;;;;;;;;;;0.69;80.07;101174.05;1889962;76;20120;-50
2022/11/16 05:15:32;;;;;;;;;;;;;;;0.79;79.94;101174.98;1883751;76;20176;-53
2022/11/16 05:18:00;;;;;;;;;;;;;;;0.89;79.82;101170.31;1886137;76;20143;-55
2022/11/16 05:26:02;;;;;;;;;;;;;;;1.20;79.41;101171.41;1882040;75;20289;-57
2022/11/16 05:28:32;;;;;;;;;;;;;;;1.30;79.26;101162.80;1883041;76;20242;-59
2022/11/16 05:31:00;;;;;;;;;;;;;;;1.43;79.09;101163.73;1885318;76;20171;-60
2022/11/16 05:33:33;;;;;;;;;;;;;;;1.52;79.07;101157.30;1884219;76;20285;-60
2022/11/16 05:35:58;;;;;;;;;;;;;;;1.62;78.94;101158.63;1880879;76;20265;-60
2022/11/16 05:38:26;;;;;;;;;;;;;;;1.69;78.83;101161.70;1884671;76;20148;-52
2022/11/16 05:40:55;;;;;;;;;;;;;;;1.73;78.92;101159.14;1886711;76;20451;-57
2022/11/16 05:43:23;;;;;;;;;;;;;;;1.81;78.85;101163.05;1881208;76;20257;-57
2022/11/16 05:45:53;;;;;;;;;;;;;;;1.91;78.73;101154.42;1884821;76;20246;-58
2022/11/16 05:48:21;;;;;;;;;;;;;;;2.02;78.71;101151.86;1886223;76;20297;-56
2022/11/16 05:50:49;;;;;;;;;;;;;;;2.16;78.71;101153.20;1885175;76;20414;-56
2022/11/16 05:53:18;;;;;;;;;;;;;;;2.27;78.91;101151.48;1885578;74;20249;-57
2022/11/16 05:55:47;;;;;;;;;;;;;;;2.38;78.93;101147.61;1882563;76;20121;-58
2022/11/16 05:58:15;;;;;;;;;;;;;;;2.52;78.98;101148.91;1884860;76;20209;-54
2022/11/16 06:00:44;;;;;;;;;;;;;;;2.68;78.87;101148.05;1885931;76;20183;-56
2022/11/16 06:03:12;;;;;;;;;;;;;;;2.86;78.71;101141.13;1885359;76;20271;-56
2022/11/16 06:05:40;;;;;;;;;;;;;;;3.05;78.46;101138.06;1886522;76;20170;-57
2022/11/16 06:08:10;;;;;;;;;;;;;;;3.22;78.16;101130.21;1884082;76;20273;-63
2022/11/16 06:10:37;;;;;;;;;;;;;;;3.34;77.92;101122.79;1884044;75;20267;-61
2022/11/16 06:13:05;;;;;;;;;;;;;;;3.44;77.74;101123.20;1882823;76;20156;-62
2022/11/16 06:15:35;;;;;;;;;;;;;;;3.57;77.67;101122.73;1885106;76;20210;-58
2022/11/16 06:18:02;;;;;;;;;;;;;;;3.78;77.51;101121.75;1882849;76;20195;-58
2022/11/16 06:20:30;;;;;;;;;;;;;;;3.93;77.38;101113.88;1886635;76;20139;-57
2022/11/16 06:23:02;;;;;;;;;;;;;;;4.17;77.23;101113.27;1858592;77;20141;-61
2022/11/16 06:25:31;;;;;;;;;;;;;;;4.41;76.91;101101.83;1868545;76;20143;-62
2022/11/16 06:27:59;;;;;;;;;;;;;;;4.67;76.72;101100.72;1885007;76;20184;-62
2022/11/16 06:30:28;;;;;;;;;;;;;;;4.88;76.50;101104.45;1883588;76;20113;-58
2022/11/16 06:32:56;;;;;;;;;;;;;;;5.06;76.37;101102.55;1882777;76;20293;-57
2022/11/16 06:35:24;;;;;;;;;;;;;;;5.16;76.29;101097.63;1884567;76;20227;-57
2022/11/16 06:37:54;;;;;;;;;;;;;;;5.23;76.23;101088.86;1881405;76;20446;-58
2022/11/16 06:40:23;;;;;;;;;;;;;;;5.21;76.06;101085.41;1880915;76;20144;-58
2022/11/16 06:42:51;;;;;;;;;;;;;;;5.31;75.99;101081.81;1880990;76;20241;-58
2022/11/16 06:45:19;;;;;;;;;;;;;;;5.43;75.98;101079.94;1886757;76;20139;-58
2022/11/16 06:47:49;;;;;;;;;;;;;;;5.63;75.91;101079.69;1881550;74;20187;-55
2022/11/16 06:50:20;;;;;;;;;;;;;;;5.71;75.90;101073.45;1880911;76;20274;-58
2022/11/16 06:52:49;;;;;;;;;;;;;;;5.71;75.91;101064.31;1885238;76;20143;-56
2022/11/16 06:55:17;;;;;;;;;;;;;;;5.69;76.01;101058.24;1881447;76;20101;-52
2022/11/16 06:57:45;;;;;;;;;;;;;;;5.67;76.08;101054.79;1881025;76;20259;-52
2022/11/16 07:00:14;;;;;;;;;;;;;;;5.68;76.09;101051.31;1888013;76;20217;-52
2022/11/16 07:02:41;;;;;;;;;;;;;;;5.67;76.06;101052.62;1886489;76;20277;-53
2022/11/16 07:05:11;;;;;;;;;;;;;;;5.64;76.11;101051.36;1888922;75;20138;-56
2022/11/16 07:07:39;;;;;;;;;;;;;;;5.54;76.35;101041.48;1880110;76;20509;-53
2022/11/16 07:10:08;;;;;;;;;;;;;;;5.43;76.61;101045.98;1882662;75;20262;-55
2022/11/16 07:12:36;;;;;;;;;;;;;;;5.38;76.73;101039.05;1886111;76;20136;-56
2022/11/16 07:15:05;;;;;;;;;;;;;;;5.44;76.82;101037.25;1881497;76;20442;-58
2022/11/16 07:17:33;;;;;;;;;;;;;;;5.57;76.80;101036.19;1881887;76;20435;-56
2022/11/16 07:20:03;;;;;;;;;;;;;;;5.91;76.51;101033.13;1881855;76;20398;-56
2022/11/16 07:22:32;;;;;;;;;;;;;;;6.29;76.16;101032.97;1884786;76;20121;-57
2022/11/16 07:25:02;;;;;;;;;;;;;;;6.74;75.60;101030.45;1882399;76;20251;-56
2022/11/16 07:27:32;;;;;;;;;;;;;;;7.20;75.32;101023.01;1882870;74;20136;-59
2022/11/16 07:30:04;;;;;;;;;;;;;;;7.76;74.85;101024.44;1882520;76;20147;-56
2022/11/16 07:32:34;;;;;;;;;;;;;;;8.28;74.42;101015.31;1881768;76;20179;-57
2022/11/16 07:35:04;;;;;;;;;;;;;;;8.43;74.10;101017.59;1886079;76;20198;-56
2022/11/16 07:37:33;;;;;;;;;;;;;;;8.31;74.03;101013.93;1886533;76;20266;-56
2022/11/16 07:40:02;;;;;;;;;;;;;;;8.18;74.32;101009.90;1886614;76;20182;-56
2022/11/16 07:42:31;;;;;;;;;;;;;;;8.14;74.46;101004.33;1881581;76;20360;-57
2022/11/16 07:45:07;;;;;;;;;;;;;;;8.11;74.51;100998.26;1883066;76;20221;-56
2022/11/16 07:47:36;;;;;;;;;;;;;;;8.29;74.46;100996.91;1886296;75;20221;-56
2022/11/16 07:50:05;;;;;;;;;;;;;;;8.43;74.42;100987.42;1885110;76;20544;-56
2022/11/16 07:52:34;;;;;;;;;;;;;;;8.42;74.53;100987.00;1882070;76;20462;-56
2022/11/16 07:55:04;;;;;;;;;;;;;;;8.39;74.67;100987.06;1881571;75;20473;-56
2022/11/16 07:57:33;;;;;;;;;;;;;;;8.31;74.76;100983.76;1882804;76;20158;-56
2022/11/16 08:00:03;;;;;;;;;;;;;;;8.28;74.86;100986.45;1884182;76;20528;-56
2022/11/16 08:02:33;;;;;;;;;;;;;;;8.28;74.91;100987.77;1882542;75;20159;-57
2022/11/16 08:05:01;;;;;;;;;;;;;;;8.26;74.86;100984.32;1882422;76;20116;-56
2022/11/16 08:07:29;;;;;;;;;;;;;;;8.24;74.88;100983.50;1881306;76;20674;-54
2022/11/16 08:09:58;;;;;;;;;;;;;;;8.23;74.94;100987.05;1884187;76;20127;-55
2022/11/16 08:12:26;;;;;;;;;;;;;;;8.20;75.00;100984.48;1881020;75;20223;-54
2022/11/16 08:14:54;;;;;;;;;;;;;;;8.20;74.94;100975.30;1882056;76;20476;-54
2022/11/16 08:17:23;;;;;;;;;;;;;;;8.23;74.90;100973.47;1878454;76;20398;-53
2022/11/16 08:19:53;;;;;;;;;;;;;;;8.37;74.81;100974.86;1886954;76;20417;-52
2022/11/16 08:22:21;;;;;;;;;;;;;;;8.50;74.63;100971.92;1880694;76;20414;-56
2022/11/16 08:24:49;;;;;;;;;;;;;;;8.60;74.56;100967.74;1881427;76;20109;-56
2022/11/16 08:27:17;;;;;;;;;;;;;;;8.70;74.40;100973.13;1882443;76;20199;-57
2022/11/16 08:29:47;;;;;;;;;;;;;;;8.72;74.32;100963.45;1883383;76;20522;-56
2022/11/16 08:32:15;;;;;;;;;;;;;;;8.79;74.29;100962.37;1882125;76;20156;-56
2022/11/16 08:34:43;;;;;;;;;;;;;;;8.91;74.25;100968.17;1886435;76;20171;-56
2022/11/16 08:37:11;;;;;;;;;;;;;;;9.04;74.11;100957.30;1881782;76;20226;-50
2022/11/16 08:39:41;;;;;;;;;;;;;;;9.19;73.94;100949.41;1880928;75;20235;-51
2022/11/16 08:42:09;;;;;;;;;;;;;;;9.23;73.78;100948.87;1886057;76;20144;-55
2022/11/16 08:44:37;;;;;;;;;;;;;;;9.24;73.79;100946.20;1885130;76;20171;-56
2022/11/16 08:47:06;;;;;;;;;;;;;;;9.26;73.84;100940.90;1886819;74;20136;-55
2022/11/16 08:49:35;;;;;;;;;;;;;;;9.25;73.81;100933.91;1883426;74;20270;-59
2022/11/16 08:52:04;;;;;;;;;;;;;;;9.24;73.68;100930.43;1881743;76;20453;-60
2022/11/16 08:54:32;;;;;;;;;;;;;;;9.33;73.62;100920.53;1880935;76;20121;-60
2022/11/16 08:57:00;;;;;;;;;;;;;;;9.33;73.53;100918.75;1884797;76;20485;-58
2022/11/16 08:59:29;;;;;;;;;;;;;;;9.33;73.52;100916.59;1881453;76;20159;-55
2022/11/16 09:01:59;;;;;;;;;;;;;;;9.28;73.47;100912.81;1884858;74;20200;-57
2022/11/16 09:04:27;;;;;;;;;;;;;;;9.26;73.39;100904.97;1882389;76;20121;-58
2022/11/16 09:06:55;;;;;;;;;;;;;;;9.30;73.36;100907.52;1888425;76;20221;-58
2022/11/16 09:09:22;;;;;;;;;;;;;;;9.39;73.33;100894.08;1889728;76;20143;-57
2022/11/16 09:11:52;;;;;;;;;;;;;;;9.50;73.25;100896.34;1890403;75;20151;-61
2022/11/16 09:14:20;;;;;;;;;;;;;;;9.63;73.19;100888.48;1890333;76;20147;-62
2022/11/16 09:16:51;;;;;;;;;;;;;;;9.77;73.18;100884.07;1880522;76;20721;-61
2022/11/16 09:19:19;;;;;;;;;;;;;;;9.90;73.15;100878.80;1885563;76;20270;-62
2022/11/16 09:21:47;;;;;;;;;;;;;;;10.01;73.07;100872.73;1885420;76;20520;-62
2022/11/16 09:24:14;;;;;;;;;;;;;;;10.13;72.99;100871.91;1885644;76;20232;-56
2022/11/16 09:26:42;;;;;;;;;;;;;;;10.23;72.86;100871.50;1886549;76;20188;-52
2022/11/16 09:29:13;;;;;;;;;;;;;;;10.31;72.71;100862.08;1881705;76;20112;-51
2022/11/16 09:31:41;;;;;;;;;;;;;;;10.34;72.63;100856.67;1885522;76;20174;-52
2022/11/16 09:34:09;;;;;;;;;;;;;;;10.39;72.44;100856.53;1886305;76;20187;-53
2022/11/16 09:36:37;;;;;;;;;;;;;;;10.42;72.06;100849.38;1880938;76;20239;-53
2022/11/16 09:39:05;;;;;;;;;;;;;;;10.51;71.74;100845.98;1886310;76;20218;-55
2022/11/16 09:41:37;;;;;;;;;;;;;;;10.59;71.52;100838.69;1886320;76;20105;-53
2022/11/16 09:44:09;;;;;;;;;;;;;;;10.72;71.33;100837.30;1881610;76;20280;-53
2022/11/16 09:46:50;;;;;;;;;;;;;;;11.03;71.01;100826.02;1883437;76;20178;-58
2022/11/16 09:49:21;;;;;;;;;;;;;;;11.33;70.52;100826.58;1884824;76;20167;-57
2022/11/16 09:51:51;;;;;;;;;;;;;;;11.87;68.97;100822.53;1884286;75;20116;-58
2022/11/16 09:54:20;;;;;;;;;;;;;;;12.20;67.98;100823.81;1890551;76;20202;-58
2022/11/16 09:56:51;;;;;;;;;;;;;;;12.46;67.70;100820.84;1887667;74;20161;-57
2022/11/16 09:59:27;;;;;;;;;;;;;;;12.52;67.57;100817.06;1890615;76;20147;-57
2022/11/16 10:02:00;;;;;;;;;;;;;;;12.65;67.43;100812.06;1890646;76;20132;-57
2022/11/16 10:04:35;;;;;;;;;;;;;;;12.85;67.22;100813.30;1879747;76;20113;-58
2022/11/16 10:07:09;;;;;;;;;;;;;;;12.85;67.26;100805.38;1883937;76;20180;-58
2022/11/16 10:09:37;;;;;;;;;;;;;;;12.79;67.04;100801.72;1883618;76;20117;-57
2022/11/16 10:12:13;;;;;;;;;;;;;;;12.68;67.22;100807.50;1884075;76;20241;-58
2022/11/16 10:15:01;;;;;;;;;;;;;;;12.55;67.53;100799.77;1883739;76;20113;-57
2022/11/16 10:17:29;;;;;;;;;;;;;;;12.42;67.51;100799.94;1884037;76;20145;-57
2022/11/16 10:20:15;;;;;;;;;;;;;;;12.29;67.71;100793.04;1884009;76;20121;-57
2022/11/16 10:22:44;;;;;;;;;;;;;;;12.23;67.79;100798.58;1884075;76;20117;-58
2022/11/16 10:25:28;;;;;;;;;;;;;;;12.15;67.87;100790.56;1883469;76;20116;-57
2022/11/16 10:28:12;;;;;;;;;;;;;;;12.11;67.90;100788.12;1885525;75;20416;-56
2022/11/16 10:30:42;;;;;;;;;;;;;;;12.11;68.06;100781.52;1890486;76;20131;-57
2022/11/16 10:33:17;;;;;;;;;;;;;;;12.12;68.16;100789.84;1890272;76;20147;-58
2022/11/16 10:35:46;;;;;;;;;;;;;;;12.13;68.18;100787.58;1890460;75;20186;-56
2022/11/16 10:38:16;;;;;;;;;;;;;;;12.12;67.98;100788.05;1890280;76;20139;-59
2022/11/16 10:40:45;;;;;;;;;;;;;;;12.16;68.02;100785.66;1890469;76;20432;-58
2022/11/16 10:43:14;;;;;;;;;;;;;;;12.28;67.91;100777.67;1890592;76;20398;-59
2022/11/16 10:45:47;;;;;;;;;;;;;;;12.46;67.76;100775.09;1890413;76;20163;-58
2022/11/16 10:48:16;;;;;;;;;;;;;;;12.59;67.39;100769.63;1890327;76;20284;-60
2022/11/16 10:50:47;;;;;;;;;;;;;;;12.75;67.40;100768.45;1889808;76;20104;-57
2022/11/16 10:53:16;;;;;;;;;;;;;;;12.94;67.10;100766.63;1890556;76;20176;-57
2022/11/16 10:55:44;;;;;;;;;;;;;;;13.07;66.89;100759.42;1889371;76;20140;-57
2022/11/16 10:58:12;;;;;;;;;;;;;;;13.23;66.39;100758.21;1890509;76;20109;-57
2022/11/16 11:00:41;;;;;;;;;;;;;;;13.30;66.30;100746.40;1890471;76;20144;-58
2022/11/16 11:03:10;;;;;;;;;;;;;;;13.36;66.30;100749.23;1890625;76;20151;-58
2022/11/16 11:05:39;;;;;;;;;;;;;;;13.35;66.23;100743.54;1890491;76;20401;-58
2022/11/16 11:08:09;;;;;;;;;;;;;;;13.22;66.04;100737.98;1888307;76;20151;-57
2022/11/16 11:10:38;;;;;;;;;;;;;;;13.18;65.65;100738.59;1890054;75;20301;-58
2022/11/16 11:13:09;;;;;;;;;;;;;;;13.31;65.26;100737.55;1887388;76;20438;-59
2022/11/16 11:15:39;;;;;;;;;;;;;;;13.43;65.13;100731.64;1880600;76;20265;-48
2022/11/16 11:18:25;;;;;;;;;;;;;;;13.67;64.56;100732.64;1880017;76;20155;-47
2022/11/16 11:20:54;;;;;;;;;;;;;;;13.74;64.35;100724.78;1880605;76;20117;-58
2022/11/16 11:23:23;;;;;;;;;;;;;;;13.89;63.94;100727.08;1878510;76;20116;-54
2022/11/16 11:25:56;;;;;;;;;;;;;;;13.97;63.86;100730.64;1880523;76;20101;-62
2022/11/16 11:28:28;;;;;;;;;;;;;;;13.80;64.09;100724.44;1880381;75;20140;-63
2022/11/16 11:31:03;;;;;;;;;;;;;;;13.64;64.47;100728.83;1880616;76;20144;-63
2022/11/16 11:33:29;;;;;;;;;;;;;;;13.54;64.66;100731.55;1879953;76;20174;-63
2022/11/16 11:36:06;;;;;;;;;;;;;;;13.41;64.72;100725.58;1878681;76;20164;-63
2022/11/16 11:38:40;;;;;;;;;;;;;;;13.34;64.95;100728.15;1880456;76;20448;-57
2022/11/16 11:41:13;;;;;;;;;;;;;;;13.33;65.18;100723.78;1874058;76;20104;-58
2022/11/16 11:43:41;;;;;;;;;;;;;;;13.36;65.25;100726.28;1862265;76;20104;-58
2022/11/16 11:46:22;;;;;;;;;;;;;;;13.37;65.38;100716.10;1862670;77;20116;-57
2022/11/16 11:48:53;;;;;;;;;;;;;;;13.36;65.43;100714.38;1861265;77;20116;-57
2022/11/16 11:51:22;;;;;;;;;;;;;;;13.32;65.40;100710.19;1861621;75;20109;-56
2022/11/16 11:53:55;;;;;;;;;;;;;;;13.25;65.35;100709.59;1862556;77;20143;-57
2022/11/16 11:56:23;;;;;;;;;;;;;;;13.18;65.39;100706.02;1862881;77;20152;-57
2022/11/16 11:58:51;;;;;;;;;;;;;;;13.08;65.54;100702.52;1862641;77;20104;-56
2022/11/16 12:01:36;;;;;;;;;;;;;;;13.06;65.69;100703.54;1862513;76;20121;-57
2022/11/16 12:04:08;;;;;;;;;;;;;;;13.04;65.76;100704.94;1862627;77;20116;-60
2022/11/16 12:06:47;;;;;;;;;;;;;;;13.02;65.86;100705.48;1862664;77;20113;-56
2022/11/16 12:09:16;;;;;;;;;;;;;;;13.02;65.98;100704.16;1862676;77;20117;-60
2022/11/16 12:11:52;;;;;;;;;;;;;;;13.02;66.03;100700.64;1854022;77;20137;-61
2022/11/16 12:14:24;;;;;;;;;;;;;;;12.97;66.05;100702.20;1875313;76;20159;-57
2022/11/16 12:16:53;;;;;;;;;;;;;;;12.91;66.11;100690.16;1883298;75;20144;-53
2022/11/16 12:19:42;;;;;;;;;;;;;;;12.88;66.15;100684.16;1884203;76;20128;-59
2022/11/16 12:22:10;;;;;;;;;;;;;;;12.83;66.11;100688.33;1883848;75;20116;-55
2022/11/16 12:24:49;;;;;;;;;;;;;;;12.82;66.11;100687.08;1883040;76;20108;-55
2022/11/16 12:27:25;;;;;;;;;;;;;;;12.81;66.09;100686.71;1884148;75;20174;-58
2022/11/16 12:29:52;;;;;;;;;;;;;;;12.81;66.15;100684.06;1889787;74;20135;-56
2022/11/16 12:32:21;;;;;;;;;;;;;;;12.78;66.05;100680.25;1890374;76;20143;-56
2022/11/16 12:34:56;;;;;;;;;;;;;;;12.76;66.10;100686.92;1890282;76;20240;-57
2022/11/16 12:37:42;;;;;;;;;;;;;;;12.73;66.11;100685.30;1889630;76;20140;-58
2022/11/16 12:40:29;;;;;;;;;;;;;;;12.70;66.18;100681.48;1890666;76;20140;-58
2022/11/16 12:43:02;;;;;;;;;;;;;;;12.68;66.29;100682.49;1888320;76;20113;-59
2022/11/16 12:45:37;;;;;;;;;;;;;;;12.67;66.36;100676.36;1880379;76;20121;-58
2022/11/16 12:48:21;;;;;;;;;;;;;;;12.64;66.42;100676.98;1885190;76;20135;-57
2022/11/16 12:50:54;;;;;;;;;;;;;;;12.58;66.47;100678.57;1880168;76;20147;-54
2022/11/16 12:53:39;;;;;;;;;;;;;;;12.51;66.55;100680.67;1890239;76;20143;-52
2022/11/16 12:56:15;;;;;;;;;;;;;;;12.44;66.67;100681.89;1885289;76;20151;-51
2022/11/16 12:58:44;;;;;;;;;;;;;;;12.36;66.76;100681.79;1883532;75;20121;-52
2022/11/16 13:01:19;;;;;;;;;;;;;;;12.28;66.89;100673.39;1884069;76;20125;-49
2022/11/16 13:03:49;;;;;;;;;;;;;;;12.22;66.97;100672.34;1883969;76;20124;-52
2022/11/16 13:06:18;;;;;;;;;;;;;;;12.17;67.15;100670.37;1883882;76;20125;-52
2022/11/16 13:08:50;;;;;;;;;;;;;;;12.10;67.24;100663.22;1858579;76;20223;-52
2022/11/16 13:11:28;;;;;;;;;;;;;;;12.06;67.40;100656.82;1858408;77;20126;-52
2022/11/16 13:13:58;;;;;;;;;;;;;;;12.01;67.56;100657.49;1892449;73;20168;-52
2022/11/16 13:16:27;;;;;;;;;;;;;;;11.93;67.70;100654.77;1896014;75;20194;-52
2022/11/16 13:18:55;;;;;;;;;;;;;;;11.88;67.87;100646.64;1890483;76;20178;-50
2022/11/16 13:21:37;;;;;;;;;;;;;;;11.83;68.02;100643.35;1890459;76;20143;-52
2022/11/16 13:24:09;;;;;;;;;;;;;;;11.78;68.14;100643.55;1890766;75;20131;-51
2022/11/16 13:26:54;;;;;;;;;;;;;;;11.74;68.36;100643.30;1890816;74;20138;-57
2022/11/16 13:29:27;;;;;;;;;;;;;;;11.68;68.56;100639.63;1863196;75;20177;-51
2022/11/16 13:31:59;;;;;;;;;;;;;;;11.62;68.70;100638.13;1908660;75;20439;-54
2022/11/16 13:34:34;;;;;;;;;;;;;;;11.58;68.79;100634.77;1890335;76;20135;-48
2022/11/16 13:37:26;;;;;;;;;;;;;;;11.52;68.90;100628.44;1915976;75;20142;-54